sensor_id;sensor_type;location;lat;lon;timestamp;pressure;altitude;pressure_sealevel;temperature;humidity
79150;BME280;68563;45.644;13.782;2023-04-22T00:00:41;100862.53;;;14.64;51.44
79150;BME280;68563;45.644;13.782;2023-04-22T00:03:07;100863.63;;;14.55;51.91
79150;BME280;68563;45.644;13.782;2023-04-22T00:05:32;100856.94;;;14.45;52.61
79150;BME280;68563;45.644;13.782;2023-04-22T00:07:58;100859.50;;;14.46;52.29
79150;BME280;68563;45.644;13.782;2023-04-22T00:10:23;100851.81;;;14.42;52.39
79150;BME280;68563;45.644;13.782;2023-04-22T00:12:49;100859.75;;;14.37;52.48
79150;BME280;68563;45.644;13.782;2023-04-22T00:15:15;100860.53;;;14.41;52.54
79150;BME280;68563;45.644;13.782;2023-04-22T00:17:44;100857.13;;;14.37;52.64
79150;BME280;68563;45.644;13.782;2023-04-22T00:20:10;100846.81;;;14.32;52.49
79150;BME280;68563;45.644;13.782;2023-04-22T00:22:35;100859.78;;;14.35;52.38
79150;BME280;68563;45.644;13.782;2023-04-22T00:25:01;100858.03;;;14.36;52.09
79150;BME280;68563;45.644;13.782;2023-04-22T00:27:26;100857.19;;;14.35;52.56
79150;BME280;68563;45.644;13.782;2023-04-22T00:29:51;100859.16;;;14.26;52.46
79150;BME280;68563;45.644;13.782;2023-04-22T00:32:17;100848.72;;;14.27;52.48
79150;BME280;68563;45.644;13.782;2023-04-22T00:34:43;100856.41;;;14.32;52.43
79150;BME280;68563;45.644;13.782;2023-04-22T00:37:08;100855.59;;;14.30;52.53
79150;BME280;68563;45.644;13.782;2023-04-22T00:39:33;100860.13;;;14.22;52.75
79150;BME280;68563;45.644;13.782;2023-04-22T00:41:59;100863.41;;;14.30;52.74
79150;BME280;68563;45.644;13.782;2023-04-22T00:44:26;100858.34;;;14.24;52.39
79150;BME280;68563;45.644;13.782;2023-04-22T00:46:52;100862.00;;;14.16;52.40
79150;BME280;68563;45.644;13.782;2023-04-22T00:49:18;100856.69;;;14.21;52.51
79150;BME280;68563;45.644;13.782;2023-04-22T00:51:44;100855.97;;;14.14;52.46
79150;BME280;68563;45.644;13.782;2023-04-22T00:54:10;100864.50;;;14.21;52.64
79150;BME280;68563;45.644;13.782;2023-04-22T00:56:37;100864.34;;;14.27;52.51
79150;BME280;68563;45.644;13.782;2023-04-22T00:59:02;100851.31;;;14.27;52.56
79150;BME280;68563;45.644;13.782;2023-04-22T01:01:29;100865.00;;;14.35;52.34
79150;BME280;68563;45.644;13.782;2023-04-22T01:03:54;100862.34;;;14.37;52.43
79150;BME280;68563;45.644;13.782;2023-04-22T01:06:23;100858.75;;;14.41;52.11
79150;BME280;68563;45.644;13.782;2023-04-22T01:08:48;100858.88;;;14.36;52.22
79150;BME280;68563;45.644;13.782;2023-04-22T01:11:14;100859.63;;;14.42;52.05
79150;BME280;68563;45.644;13.782;2023-04-22T01:13:39;100843.09;;;14.43;51.81
79150;BME280;68563;45.644;13.782;2023-04-22T01:16:07;100850.06;;;14.42;51.95
79150;BME280;68563;45.644;13.782;2023-04-22T01:18:34;100851.94;;;14.37;52.47
79150;BME280;68563;45.644;13.782;2023-04-22T01:21:00;100852.59;;;14.45;52.39
79150;BME280;68563;45.644;13.782;2023-04-22T01:23:26;100849.22;;;14.40;52.41
79150;BME280;68563;45.644;13.782;2023-04-22T01:25:52;100850.09;;;14.41;52.18
79150;BME280;68563;45.644;13.782;2023-04-22T01:28:18;100854.53;;;14.37;52.05
79150;BME280;68563;45.644;13.782;2023-04-22T01:30:43;100838.03;;;14.36;52.46
79150;BME280;68563;45.644;13.782;2023-04-22T01:33:09;100846.66;;;14.39;52.53
79150;BME280;68563;45.644;13.782;2023-04-22T01:35:35;100843.25;;;14.36;52.05
79150;BME280;68563;45.644;13.782;2023-04-22T01:38:08;100838.34;;;14.24;52.35
79150;BME280;68563;45.644;13.782;2023-04-22T01:40:34;100846.16;;;14.26;52.53
79150;BME280;68563;45.644;13.782;2023-04-22T01:42:59;100843.88;;;14.12;52.80
79150;BME280;68563;45.644;13.782;2023-04-22T01:45:26;100839.38;;;14.18;52.71
79150;BME280;68563;45.644;13.782;2023-04-22T01:47:52;100834.16;;;14.18;52.28
79150;BME280;68563;45.644;13.782;2023-04-22T01:50:17;100831.75;;;14.11;52.55
79150;BME280;68563;45.644;13.782;2023-04-22T01:52:43;100830.06;;;14.08;52.43
79150;BME280;68563;45.644;13.782;2023-04-22T01:55:09;100832.88;;;14.00;52.89
79150;BME280;68563;45.644;13.782;2023-04-22T01:57:34;100832.22;;;13.92;52.46
79150;BME280;68563;45.644;13.782;2023-04-22T02:00:00;100825.31;;;13.90;52.93
79150;BME280;68563;45.644;13.782;2023-04-22T02:02:26;100819.28;;;13.87;52.80
79150;BME280;68563;45.644;13.782;2023-04-22T02:04:51;100830.44;;;13.94;52.41
79150;BME280;68563;45.644;13.782;2023-04-22T02:07:17;100827.16;;;13.84;52.41
79150;BME280;68563;45.644;13.782;2023-04-22T02:09:42;100837.56;;;13.86;52.74
79150;BME280;68563;45.644;13.782;2023-04-22T02:12:07;100828.09;;;13.82;52.54
79150;BME280;68563;45.644;13.782;2023-04-22T02:14:33;100840.28;;;13.81;52.55
79150;BME280;68563;45.644;13.782;2023-04-22T02:16:59;100839.44;;;13.79;52.43
79150;BME280;68563;45.644;13.782;2023-04-22T02:19:26;100844.84;;;13.71;52.81
79150;BME280;68563;45.644;13.782;2023-04-22T02:21:52;100849.25;;;13.68;53.00
79150;BME280;68563;45.644;13.782;2023-04-22T02:24:17;100847.34;;;13.75;53.05
79150;BME280;68563;45.644;13.782;2023-04-22T02:26:43;100845.47;;;13.81;52.51
79150;BME280;68563;45.644;13.782;2023-04-22T02:29:08;100839.50;;;13.78;52.60
79150;BME280;68563;45.644;13.782;2023-04-22T02:31:33;100836.94;;;13.76;52.67
79150;BME280;68563;45.644;13.782;2023-04-22T02:33:59;100838.69;;;13.74;52.63
79150;BME280;68563;45.644;13.782;2023-04-22T02:36:24;100841.34;;;13.72;52.52
79150;BME280;68563;45.644;13.782;2023-04-22T02:38:52;100837.81;;;13.75;52.71
79150;BME280;68563;45.644;13.782;2023-04-22T02:41:17;100824.06;;;13.68;52.77
79150;BME280;68563;45.644;13.782;2023-04-22T02:43:42;100837.78;;;13.77;52.54
79150;BME280;68563;45.644;13.782;2023-04-22T02:46:11;100833.56;;;13.71;52.68
79150;BME280;68563;45.644;13.782;2023-04-22T02:48:37;100834.38;;;13.73;52.65
79150;BME280;68563;45.644;13.782;2023-04-22T02:51:03;100827.47;;;13.72;52.47
79150;BME280;68563;45.644;13.782;2023-04-22T02:53:28;100830.78;;;13.79;52.69
79150;BME280;68563;45.644;13.782;2023-04-22T02:55:54;100838.50;;;13.83;52.56
79150;BME280;68563;45.644;13.782;2023-04-22T02:58:21;100839.38;;;13.82;52.68
79150;BME280;68563;45.644;13.782;2023-04-22T03:00:46;100836.63;;;13.88;52.64
79150;BME280;68563;45.644;13.782;2023-04-22T03:03:12;100833.91;;;13.93;52.43
79150;BME280;68563;45.644;13.782;2023-04-22T03:05:37;100832.22;;;13.92;52.22
79150;BME280;68563;45.644;13.782;2023-04-22T03:08:02;100828.78;;;13.90;52.30
79150;BME280;68563;45.644;13.782;2023-04-22T03:10:28;100828.72;;;13.93;52.37
79150;BME280;68563;45.644;13.782;2023-04-22T03:12:53;100837.09;;;14.04;52.10
79150;BME280;68563;45.644;13.782;2023-04-22T03:15:18;100837.16;;;14.01;52.17
79150;BME280;68563;45.644;13.782;2023-04-22T03:17:44;100833.81;;;13.96;52.17
79150;BME280;68563;45.644;13.782;2023-04-22T03:20:10;100831.28;;;13.95;52.32
79150;BME280;68563;45.644;13.782;2023-04-22T03:22:35;100832.91;;;13.99;52.20
79150;BME280;68563;45.644;13.782;2023-04-22T03:25:01;100828.66;;;13.95;52.28
79150;BME280;68563;45.644;13.782;2023-04-22T03:27:27;100827.06;;;13.89;52.28
79150;BME280;68563;45.644;13.782;2023-04-22T03:29:52;100826.28;;;13.85;52.45
79150;BME280;68563;45.644;13.782;2023-04-22T03:32:17;100824.34;;;13.94;52.23
79150;BME280;68563;45.644;13.782;2023-04-22T03:34:43;100819.88;;;14.00;52.10
79150;BME280;68563;45.644;13.782;2023-04-22T03:37:08;100828.72;;;13.93;52.89
79150;BME280;68563;45.644;13.782;2023-04-22T03:39:34;100829.66;;;13.89;52.58
79150;BME280;68563;45.644;13.782;2023-04-22T03:41:59;100829.75;;;13.86;52.41
79150;BME280;68563;45.644;13.782;2023-04-22T03:44:25;100827.06;;;13.89;52.59
79150;BME280;68563;45.644;13.782;2023-04-22T03:46:51;100836.59;;;13.90;52.67
79150;BME280;68563;45.644;13.782;2023-04-22T03:49:16;100828.72;;;13.92;52.55
79150;BME280;68563;45.644;13.782;2023-04-22T03:51:41;100829.72;;;13.87;52.52
79150;BME280;68563;45.644;13.782;2023-04-22T03:54:07;100812.59;;;13.77;52.45
79150;BME280;68563;45.644;13.782;2023-04-22T03:56:32;100831.47;;;13.87;52.62
79150;BME280;68563;45.644;13.782;2023-04-22T03:58:58;100834.19;;;13.82;52.60
79150;BME280;68563;45.644;13.782;2023-04-22T04:01:23;100831.69;;;13.78;52.94
79150;BME280;68563;45.644;13.782;2023-04-22T04:03:48;100836.00;;;13.77;53.32
79150;BME280;68563;45.644;13.782;2023-04-22T04:06:14;100841.31;;;13.74;53.28
79150;BME280;68563;45.644;13.782;2023-04-22T04:08:39;100838.75;;;13.71;53.65
79150;BME280;68563;45.644;13.782;2023-04-22T04:11:05;100840.47;;;13.72;53.56
79150;BME280;68563;45.644;13.782;2023-04-22T04:13:30;100833.53;;;13.72;53.12
79150;BME280;68563;45.644;13.782;2023-04-22T04:15:57;100837.84;;;13.74;53.42
79150;BME280;68563;45.644;13.782;2023-04-22T04:18:24;100840.47;;;13.72;53.29
79150;BME280;68563;45.644;13.782;2023-04-22T04:20:49;100840.31;;;13.78;53.46
79150;BME280;68563;45.644;13.782;2023-04-22T04:23:15;100851.66;;;13.76;53.46
79150;BME280;68563;45.644;13.782;2023-04-22T04:25:40;100849.03;;;13.77;53.18
79150;BME280;68563;45.644;13.782;2023-04-22T04:28:09;100840.31;;;13.78;53.08
79150;BME280;68563;45.644;13.782;2023-04-22T04:30:35;100848.28;;;13.72;53.01
79150;BME280;68563;45.644;13.782;2023-04-22T04:33:01;100839.78;;;13.65;53.06
79150;BME280;68563;45.644;13.782;2023-04-22T04:35:33;100850.94;;;13.70;53.05
79150;BME280;68563;45.644;13.782;2023-04-22T04:38:00;100855.25;;;13.71;53.13
79150;BME280;68563;45.644;13.782;2023-04-22T04:40:25;100855.22;;;13.73;53.06
79150;BME280;68563;45.644;13.782;2023-04-22T04:42:53;100852.53;;;13.76;52.48
79150;BME280;68563;45.644;13.782;2023-04-22T04:45:20;100847.53;;;13.67;52.65
79150;BME280;68563;45.644;13.782;2023-04-22T04:47:46;100854.47;;;13.68;52.91
79150;BME280;68563;45.644;13.782;2023-04-22T04:50:17;100849.94;;;13.75;53.10
79150;BME280;68563;45.644;13.782;2023-04-22T04:52:46;100848.81;;;13.86;52.58
79150;BME280;68563;45.644;13.782;2023-04-22T04:55:13;100850.38;;;13.94;52.27
79150;BME280;68563;45.644;13.782;2023-04-22T04:57:39;100835.63;;;13.94;51.77
79150;BME280;68563;45.644;13.782;2023-04-22T05:00:05;100853.50;;;14.08;51.74
79150;BME280;68563;45.644;13.782;2023-04-22T05:02:30;100841.06;;;14.21;51.55
79150;BME280;68563;45.644;13.782;2023-04-22T05:04:56;100858.84;;;14.38;51.18
79150;BME280;68563;45.644;13.782;2023-04-22T05:07:21;100844.78;;;14.45;51.06
79150;BME280;68563;45.644;13.782;2023-04-22T05:09:46;100843.28;;;14.70;50.07
79150;BME280;68563;45.644;13.782;2023-04-22T05:12:12;100846.75;;;14.70;49.77
79150;BME280;68563;45.644;13.782;2023-04-22T05:14:37;100850.38;;;14.96;49.58
79150;BME280;68563;45.644;13.782;2023-04-22T05:17:03;100857.09;;;15.05;48.92
79150;BME280;68563;45.644;13.782;2023-04-22T05:19:28;100855.16;;;15.11;48.45
79150;BME280;68563;45.644;13.782;2023-04-22T05:21:53;100865.16;;;15.27;48.22
79150;BME280;68563;45.644;13.782;2023-04-22T05:24:19;100860.28;;;15.44;47.87
79150;BME280;68563;45.644;13.782;2023-04-22T05:26:45;100863.03;;;15.68;47.82
79150;BME280;68563;45.644;13.782;2023-04-22T05:29:11;100853.75;;;15.88;47.01
79150;BME280;68563;45.644;13.782;2023-04-22T05:31:36;100855.59;;;16.11;47.10
79150;BME280;68563;45.644;13.782;2023-04-22T05:34:01;100856.81;;;16.27;46.77
79150;BME280;68563;45.644;13.782;2023-04-22T05:36:27;100863.78;;;16.54;46.70
79150;BME280;68563;45.644;13.782;2023-04-22T05:38:52;100865.94;;;16.66;46.11
79150;BME280;68563;45.644;13.782;2023-04-22T05:41:18;100875.16;;;16.77;46.03
79150;BME280;68563;45.644;13.782;2023-04-22T05:43:43;100871.47;;;16.82;45.78
79150;BME280;68563;45.644;13.782;2023-04-22T05:46:08;100874.69;;;16.90;45.68
79150;BME280;68563;45.644;13.782;2023-04-22T05:48:34;100865.00;;;16.94;45.32
79150;BME280;68563;45.644;13.782;2023-04-22T05:51:00;100868.41;;;16.96;45.66
79150;BME280;68563;45.644;13.782;2023-04-22T05:53:25;100867.28;;;17.03;44.94
79150;BME280;68563;45.644;13.782;2023-04-22T05:55:51;100859.22;;;17.10;44.70
79150;BME280;68563;45.644;13.782;2023-04-22T05:58:17;100871.03;;;17.20;44.72
79150;BME280;68563;45.644;13.782;2023-04-22T06:00:42;100874.38;;;17.23;44.47
79150;BME280;68563;45.644;13.782;2023-04-22T06:03:08;100870.63;;;17.31;44.33
79150;BME280;68563;45.644;13.782;2023-04-22T06:05:33;100866.13;;;17.34;43.96
79150;BME280;68563;45.644;13.782;2023-04-22T06:07:58;100862.69;;;17.32;43.93
79150;BME280;68563;45.644;13.782;2023-04-22T06:10:24;100868.41;;;17.44;44.16
79150;BME280;68563;45.644;13.782;2023-04-22T06:12:52;100869.06;;;17.49;43.34
79150;BME280;68563;45.644;13.782;2023-04-22T06:15:18;100874.00;;;17.57;43.65
79150;BME280;68563;45.644;13.782;2023-04-22T06:17:43;100870.53;;;17.56;43.63
79150;BME280;68563;45.644;13.782;2023-04-22T06:20:10;100864.31;;;17.59;43.32
79150;BME280;68563;45.644;13.782;2023-04-22T06:22:36;100866.66;;;17.66;43.30
79150;BME280;68563;45.644;13.782;2023-04-22T06:25:02;100870.84;;;17.70;43.10
79150;BME280;68563;45.644;13.782;2023-04-22T06:27:28;100879.38;;;17.76;43.33
79150;BME280;68563;45.644;13.782;2023-04-22T06:29:54;100875.25;;;17.70;43.58
79150;BME280;68563;45.644;13.782;2023-04-22T06:32:19;100873.41;;;17.72;43.85
79150;BME280;68563;45.644;13.782;2023-04-22T06:34:45;100879.44;;;17.74;44.81
79150;BME280;68563;45.644;13.782;2023-04-22T06:37:10;100884.75;;;17.73;45.52
79150;BME280;68563;45.644;13.782;2023-04-22T06:39:35;100870.97;;;17.67;46.07
79150;BME280;68563;45.644;13.782;2023-04-22T06:42:01;100882.78;;;17.78;45.81
79150;BME280;68563;45.644;13.782;2023-04-22T06:44:27;100882.72;;;17.79;45.96
79150;BME280;68563;45.644;13.782;2023-04-22T06:46:53;100890.47;;;17.82;45.95
79150;BME280;68563;45.644;13.782;2023-04-22T06:49:19;100884.13;;;17.88;47.65
79150;BME280;68563;45.644;13.782;2023-04-22T06:51:45;100886.50;;;17.94;47.95
79150;BME280;68563;45.644;13.782;2023-04-22T06:54:10;100895.53;;;18.09;47.46
79150;BME280;68563;45.644;13.782;2023-04-22T06:56:35;100889.22;;;18.15;46.70
79150;BME280;68563;45.644;13.782;2023-04-22T06:59:01;100888.03;;;18.22;46.42
79150;BME280;68563;45.644;13.782;2023-04-22T07:01:26;100889.47;;;18.29;46.57
79150;BME280;68563;45.644;13.782;2023-04-22T07:03:51;100889.22;;;18.36;46.30
79150;BME280;68563;45.644;13.782;2023-04-22T07:06:17;100888.91;;;18.43;46.84
79150;BME280;68563;45.644;13.782;2023-04-22T07:08:42;100893.81;;;18.51;46.18
79150;BME280;68563;45.644;13.782;2023-04-22T07:11:08;100903.19;;;18.57;45.76
79150;BME280;68563;45.644;13.782;2023-04-22T07:13:34;100897.59;;;18.64;46.01
79150;BME280;68563;45.644;13.782;2023-04-22T07:16:00;100880.19;;;18.63;45.75
79150;BME280;68563;45.644;13.782;2023-04-22T07:18:26;100883.38;;;18.70;45.29
79150;BME280;68563;45.644;13.782;2023-04-22T07:20:51;100896.03;;;18.81;45.27
79150;BME280;68563;45.644;13.782;2023-04-22T07:23:17;100899.38;;;18.85;44.86
79150;BME280;68563;45.644;13.782;2023-04-22T07:25:42;100898.38;;;18.87;44.54
79150;BME280;68563;45.644;13.782;2023-04-22T07:28:07;100903.50;;;18.90;45.09
79150;BME280;68563;45.644;13.782;2023-04-22T07:30:33;100900.88;;;18.90;45.46
79150;BME280;68563;45.644;13.782;2023-04-22T07:32:58;100898.22;;;18.92;45.15
79150;BME280;68563;45.644;13.782;2023-04-22T07:35:24;100911.25;;;18.93;44.93
79150;BME280;68563;45.644;13.782;2023-04-22T07:37:49;100901.72;;;18.91;45.57
79150;BME280;68563;45.644;13.782;2023-04-22T07:40:15;100914.78;;;18.92;45.32
79150;BME280;68563;45.644;13.782;2023-04-22T07:42:40;100903.50;;;18.90;45.64
79150;BME280;68563;45.644;13.782;2023-04-22T07:45:06;100908.88;;;18.87;45.66
79150;BME280;68563;45.644;13.782;2023-04-22T07:47:32;100921.09;;;18.88;45.72
79150;BME280;68563;45.644;13.782;2023-04-22T07:49:57;100912.22;;;18.91;45.21
79150;BME280;68563;45.644;13.782;2023-04-22T07:52:23;100913.97;;;18.92;45.01
79150;BME280;68563;45.644;13.782;2023-04-22T07:54:48;100920.72;;;18.97;45.37
79150;BME280;68563;45.644;13.782;2023-04-22T07:57:14;100920.72;;;18.97;45.45
79150;BME280;68563;45.644;13.782;2023-04-22T07:59:39;100919.72;;;19.00;45.16
79150;BME280;68563;45.644;13.782;2023-04-22T08:02:05;100915.19;;;19.04;45.51
79150;BME280;68563;45.644;13.782;2023-04-22T08:04:30;100911.78;;;19.02;45.19
79150;BME280;68563;45.644;13.782;2023-04-22T08:06:56;100923.59;;;19.12;44.34
79150;BME280;68563;45.644;13.782;2023-04-22T08:09:21;100926.84;;;19.17;44.64
79150;BME280;68563;45.644;13.782;2023-04-22T08:11:47;100927.56;;;19.21;44.59
79150;BME280;68563;45.644;13.782;2023-04-22T08:14:12;100937.91;;;19.24;44.23
79150;BME280;68563;45.644;13.782;2023-04-22T08:16:38;100937.78;;;19.27;44.25
79150;BME280;68563;45.644;13.782;2023-04-22T08:19:04;100941.91;;;19.33;43.74
79150;BME280;68563;45.644;13.782;2023-04-22T08:21:29;100941.91;;;19.33;43.61
79150;BME280;68563;45.644;13.782;2023-04-22T08:23:55;100941.19;;;19.29;43.51
79150;BME280;68563;45.644;13.782;2023-04-22T08:26:21;100934.97;;;19.32;43.17
79150;BME280;68563;45.644;13.782;2023-04-22T08:28:46;100934.69;;;19.38;42.90
79150;BME280;68563;45.644;13.782;2023-04-22T08:31:11;100936.38;;;19.39;43.16
79150;BME280;68563;45.644;13.782;2023-04-22T08:33:39;100942.47;;;19.39;42.91
79150;BME280;68563;45.644;13.782;2023-04-22T08:36:05;100931.13;;;19.39;43.47
79150;BME280;68563;45.644;13.782;2023-04-22T08:38:31;100940.56;;;19.43;43.96
79150;BME280;68563;45.644;13.782;2023-04-22T08:40:57;100941.34;;;19.45;43.59
79150;BME280;68563;45.644;13.782;2023-04-22T08:43:24;100939.50;;;19.47;43.02
79150;BME280;68563;45.644;13.782;2023-04-22T08:45:51;100938.53;;;19.50;42.94
79150;BME280;68563;45.644;13.782;2023-04-22T08:48:18;100941.06;;;19.51;42.40
79150;BME280;68563;45.644;13.782;2023-04-22T08:50:46;100935.81;;;19.51;42.43
79150;BME280;68563;45.644;13.782;2023-04-22T08:53:12;100940.00;;;19.55;42.11
79150;BME280;68563;45.644;13.782;2023-04-22T08:55:39;100931.34;;;19.53;42.21
79150;BME280;68563;45.644;13.782;2023-04-22T08:58:05;100927.00;;;19.52;41.96
79150;BME280;68563;45.644;13.782;2023-04-22T09:00:32;100924.19;;;19.57;42.15
79150;BME280;68563;45.644;13.782;2023-04-22T09:03:00;100923.31;;;19.56;41.87
79150;BME280;68563;45.644;13.782;2023-04-22T09:05:28;100925.84;;;19.58;42.08
79150;BME280;68563;45.644;13.782;2023-04-22T09:07:54;100925.03;;;19.57;41.91
79150;BME280;68563;45.644;13.782;2023-04-22T09:10:19;100925.03;;;19.57;42.07
79150;BME280;68563;45.644;13.782;2023-04-22T09:12:45;100929.47;;;19.55;41.74
79150;BME280;68563;45.644;13.782;2023-04-22T09:15:11;100922.47;;;19.56;41.94
79150;BME280;68563;45.644;13.782;2023-04-22T09:17:37;100917.31;;;19.54;41.74
79150;BME280;68563;45.644;13.782;2023-04-22T09:20:05;100916.63;;;19.49;41.49
79150;BME280;68563;45.644;13.782;2023-04-22T09:23:01;100916.50;;;19.52;41.49
79150;BME280;68563;45.644;13.782;2023-04-22T09:25:27;100909.69;;;19.48;41.21
79150;BME280;68563;45.644;13.782;2023-04-22T09:27:57;100916.63;;;19.49;40.67
79150;BME280;68563;45.644;13.782;2023-04-22T09:32:59;100916.78;;;19.46;40.74
79150;BME280;68563;45.644;13.782;2023-04-22T09:35:30;100903.78;;;19.43;40.60
79150;BME280;68563;45.644;13.782;2023-04-22T09:37:57;100910.03;;;19.40;40.42
79150;BME280;68563;45.644;13.782;2023-04-22T09:40:23;100906.69;;;19.37;41.11
79150;BME280;68563;45.644;13.782;2023-04-22T09:42:50;100907.69;;;19.34;41.91
79150;BME280;68563;45.644;13.782;2023-04-22T09:48:08;100904.38;;;19.31;42.91
79150;BME280;68563;45.644;13.782;2023-04-22T09:50:35;100905.44;;;19.26;43.05
79150;BME280;68563;45.644;13.782;2023-04-22T09:53:06;100903.84;;;19.22;43.92
79150;BME280;68563;45.644;13.782;2023-04-22T09:55:38;100912.94;;;19.15;44.10
79150;BME280;68563;45.644;13.782;2023-04-22T09:58:07;100913.47;;;19.03;43.94
79150;BME280;68563;45.644;13.782;2023-04-22T10:00:34;100911.06;;;18.98;44.68
79150;BME280;68563;45.644;13.782;2023-04-22T10:03:00;100907.63;;;18.96;44.84
79150;BME280;68563;45.644;13.782;2023-04-22T10:05:25;100915.91;;;18.87;44.97
79150;BME280;68563;45.644;13.782;2023-04-22T10:07:53;100908.44;;;18.77;46.05
79150;BME280;68563;45.644;13.782;2023-04-22T10:10:19;100918.00;;;18.78;46.43
79150;BME280;68563;45.644;13.782;2023-04-22T10:12:46;100917.00;;;18.81;46.01
79150;BME280;68563;45.644;13.782;2023-04-22T10:15:12;100918.66;;;18.84;45.92
79150;BME280;68563;45.644;13.782;2023-04-22T10:17:38;100910.69;;;18.85;45.67
79150;BME280;68563;45.644;13.782;2023-04-22T10:20:10;100909.94;;;18.83;44.98
79150;BME280;68563;45.644;13.782;2023-04-22T10:22:39;100922.47;;;18.76;44.67
79150;BME280;68563;45.644;13.782;2023-04-22T10:25:11;100903.19;;;18.77;45.06
79150;BME280;68563;45.644;13.782;2023-04-22T10:27:37;100908.22;;;18.82;45.04
79150;BME280;68563;45.644;13.782;2023-04-22T10:30:03;100898.84;;;18.76;44.34
79150;BME280;68563;45.644;13.782;2023-04-22T10:32:29;100897.09;;;18.77;43.04
79150;BME280;68563;45.644;13.782;2023-04-22T10:35:10;100902.91;;;18.84;42.53
79150;BME280;68563;45.644;13.782;2023-04-22T10:37:40;100901.19;;;18.82;42.30
79150;BME280;68563;45.644;13.782;2023-04-22T10:42:36;100900.28;;;18.84;41.57
79150;BME280;68563;45.644;13.782;2023-04-22T10:45:03;100901.19;;;18.82;41.06
79150;BME280;68563;45.644;13.782;2023-04-22T10:47:33;100900.22;;;18.85;41.62
79150;BME280;68563;45.644;13.782;2023-04-22T10:52:33;100903.09;;;18.79;41.20
79150;BME280;68563;45.644;13.782;2023-04-22T10:54:59;100898.84;;;18.76;41.21
79150;BME280;68563;45.644;13.782;2023-04-22T10:57:30;100897.13;;;18.75;41.04
79150;BME280;68563;45.644;13.782;2023-04-22T11:02:45;100897.09;;;18.77;41.97
79150;BME280;68563;45.644;13.782;2023-04-22T11:05:24;100900.47;;;18.79;41.29
79150;BME280;68563;45.644;13.782;2023-04-22T11:07:55;100895.38;;;18.76;41.49
79150;BME280;68563;45.644;13.782;2023-04-22T11:10:45;100891.13;;;18.73;41.10
79150;BME280;68563;45.644;13.782;2023-04-22T11:13:13;100885.94;;;18.72;40.42
79150;BME280;68563;45.644;13.782;2023-04-22T11:15:41;100884.25;;;18.71;40.49
79150;BME280;68563;45.644;13.782;2023-04-22T11:18:08;100887.72;;;18.71;40.28
79150;BME280;68563;45.644;13.782;2023-04-22T11:20:35;100885.28;;;18.66;39.86
79150;BME280;68563;45.644;13.782;2023-04-22T11:23:01;100881.75;;;18.68;39.94
79150;BME280;68563;45.644;13.782;2023-04-22T11:25:27;100879.19;;;18.66;39.54
79150;BME280;68563;45.644;13.782;2023-04-22T11:27:52;100883.56;;;18.65;39.98
79150;BME280;68563;45.644;13.782;2023-04-22T11:30:23;100873.34;;;18.59;39.88
79150;BME280;68563;45.644;13.782;2023-04-22T11:32:51;100874.06;;;18.63;40.19
79150;BME280;68563;45.644;13.782;2023-04-22T11:35:31;100858.47;;;18.60;39.84
79150;BME280;68563;45.644;13.782;2023-04-22T11:38:02;100865.28;;;18.64;40.35
79150;BME280;68563;45.644;13.782;2023-04-22T11:40:29;100871.53;;;18.61;40.25
79150;BME280;68563;45.644;13.782;2023-04-22T11:42:55;100869.72;;;18.62;40.20
79150;BME280;68563;45.644;13.782;2023-04-22T11:45:22;100870.47;;;18.65;39.95
79150;BME280;68563;45.644;13.782;2023-04-22T11:47:49;100857.53;;;18.61;40.21
79150;BME280;68563;45.644;13.782;2023-04-22T11:50:16;100864.09;;;18.71;39.99
79150;BME280;68563;45.644;13.782;2023-04-22T11:55:19;100864.03;;;18.73;39.51
79150;BME280;68563;45.644;13.782;2023-04-22T11:57:51;100871.78;;;18.76;40.15
79150;BME280;68563;45.644;13.782;2023-04-22T12:00:17;100864.66;;;18.78;39.54
79150;BME280;68563;45.644;13.782;2023-04-22T12:02:42;100865.47;;;18.80;39.84
79150;BME280;68563;45.644;13.782;2023-04-22T12:05:10;100859.38;;;18.79;39.50
79150;BME280;68563;45.644;13.782;2023-04-22T12:07:38;100849.19;;;18.72;39.70
79150;BME280;68563;45.644;13.782;2023-04-22T12:10:05;100866.38;;;18.79;39.54
79150;BME280;68563;45.644;13.782;2023-04-22T12:12:32;100856.03;;;18.76;39.74
79150;BME280;68563;45.644;13.782;2023-04-22T12:15:08;100865.59;;;18.77;39.81
79150;BME280;68563;45.644;13.782;2023-04-22T12:17:34;100857.66;;;18.78;39.94
79150;BME280;68563;45.644;13.782;2023-04-22T12:20:00;100857.59;;;18.80;39.82
79150;BME280;68563;45.644;13.782;2023-04-22T12:22:27;100860.22;;;18.80;39.90
79150;BME280;68563;45.644;13.782;2023-04-22T12:24:52;100855.50;;;18.68;39.73
79150;BME280;68563;45.644;13.782;2023-04-22T12:27:19;100857.22;;;18.69;39.85
79150;BME280;68563;45.644;13.782;2023-04-22T12:29:52;100851.91;;;18.70;39.98
79150;BME280;68563;45.644;13.782;2023-04-22T12:32:22;100858.06;;;18.69;40.23
79150;BME280;68563;45.644;13.782;2023-04-22T12:34:48;100847.72;;;18.66;40.11
79150;BME280;68563;45.644;13.782;2023-04-22T12:37:14;100846.84;;;18.65;40.23
79150;BME280;68563;45.644;13.782;2023-04-22T12:39:39;100854.88;;;18.62;40.64
79150;BME280;68563;45.644;13.782;2023-04-22T12:42:05;100855.50;;;18.68;40.30
79150;BME280;68563;45.644;13.782;2023-04-22T12:44:31;100850.38;;;18.64;40.45
79150;BME280;68563;45.644;13.782;2023-04-22T12:46:57;100849.63;;;18.62;40.65
79150;BME280;68563;45.644;13.782;2023-04-22T12:49:22;100846.28;;;18.59;40.94
79150;BME280;68563;45.644;13.782;2023-04-22T12:51:48;100847.84;;;18.63;41.50